Time;durP1;ratioP1;P1;durP2;ratioP2;P2;SDS_P1;SDS_P2;PMS_P1;PMS_P2;Temp;Humidity;BMP_temperature;BMP_pressure;BME280_temperature;BME280_humidity;BME280_pressure;Samples;Min_cycle;Max_cycle;Signal;HPM_P1;HPM_P2
2024/04/26 00:08:14;;;;;;;6.95;3.75;;;1.90;99.90;;;;;;22708730;26;20104;-47
2024/04/26 00:18:19;;;;;;;4.38;3.20;;;1.90;99.90;;;;;;22678122;26;20006;-43
2024/04/26 00:28:21;;;;;;;5.05;3.75;;;1.80;99.90;;;;;;22709108;26;20041;-44
2024/04/26 00:38:23;;;;;;;7.38;4.03;;;1.70;99.90;;;;;;22662551;26;20026;-47
2024/04/26 00:48:25;;;;;;;6.18;3.97;;;1.60;99.90;;;;;;22677262;26;20034;-44
2024/04/26 00:58:27;;;;;;;5.35;3.78;;;1.60;99.90;;;;;;22689783;26;20034;-44
2024/04/26 01:08:29;;;;;;;5.80;3.80;;;1.60;99.90;;;;;;22705938;26;20022;-47
2024/04/26 01:18:31;;;;;;;6.80;4.70;;;1.50;99.90;;;;;;22706907;26;20022;-43
2024/04/26 01:28:35;;;;;;;6.00;4.60;;;1.50;99.90;;;;;;22705603;26;20042;-47
2024/04/26 01:38:36;;;;;;;5.80;4.60;;;1.40;99.90;;;;;;22659556;26;20375;-44
2024/04/26 01:48:38;;;;;;;9.07;6.38;;;1.30;99.90;;;;;;22670365;26;20089;-44
2024/04/26 01:58:40;;;;;;;10.93;7.53;;;0.90;99.90;;;;;;22657385;26;20030;-43
2024/04/26 02:08:45;;;;;;;12.20;8.07;;;0.50;99.90;;;;;;22702614;26;20029;-43
2024/04/26 02:18:47;;;;;;;16.55;8.63;;;0.10;99.90;;;;;;22702339;26;20029;-44
2024/04/26 02:28:49;;;;;;;15.77;9.60;;;-0.10;99.90;;;;;;22610316;26;20070;-43
2024/04/26 02:38:51;;;;;;;13.10;8.15;;;;;;;;;;22613605;26;20479;-43
2024/04/26 02:48:55;;;;;;;12.43;7.55;;;-0.30;99.90;;;;;;22565753;26;20030;-43
2024/04/26 02:58:56;;;;;;;13.50;7.65;;;-0.30;99.90;;;;;;22700626;26;20069;-43
2024/04/26 03:08:59;;;;;;;12.35;7.95;;;;;;;;;;22714120;26;20026;-43
2024/04/26 03:19:00;;;;;;;10.82;7.18;;;0.30;99.90;;;;;;22706799;26;20901;-43
2024/04/26 03:29:02;;;;;;;12.75;8.75;;;0.30;99.90;;;;;;22703993;26;20035;-44
2024/04/26 03:39:05;;;;;;;14.10;8.93;;;0.30;99.90;;;;;;22710003;26;20026;-44
2024/04/26 03:49:08;;;;;;;14.35;8.68;;;0.40;99.90;;;;;;22638535;26;20030;-43
2024/04/26 03:59:10;;;;;;;12.68;8.07;;;0.40;99.90;;;;;;22564978;26;20030;-44
2024/04/26 04:09:12;;;;;;;15.25;8.85;;;0.30;99.90;;;;;;22628700;26;20041;-43
2024/04/26 04:19:14;;;;;;;14.27;8.38;;;0.30;99.90;;;;;;22710655;26;20341;-44
2024/04/26 04:29:16;;;;;;;11.63;7.38;;;0.40;99.90;;;;;;22673007;26;20031;-44
2024/04/26 04:39:18;;;;;;;12.38;7.95;;;0.60;99.90;;;;;;22618963;26;20050;-44
2024/04/26 04:49:22;;;;;;;11.98;7.47;;;0.90;99.90;;;;;;22556525;26;20027;-43
2024/04/26 04:59:24;;;;;;;9.68;6.15;;;1.00;99.90;;;;;;22576835;26;20372;-45
2024/04/26 05:09:26;;;;;;;9.02;6.28;;;1.00;99.90;;;;;;22595791;26;20030;-45
2024/04/26 05:19:28;;;;;;;8.55;6.13;;;1.20;99.90;;;;;;22492324;26;20093;-43
2024/04/26 05:29:30;;;;;;;8.02;5.65;;;1.50;99.90;;;;;;22558651;26;20026;-43
2024/04/26 05:39:32;;;;;;;6.47;4.40;;;1.60;99.90;;;;;;22560752;26;20030;-44
2024/04/26 05:49:33;;;;;;;8.40;5.93;;;1.80;99.90;;;;;;22548381;26;20385;-43
2024/04/26 05:59:35;;;;;;;7.40;4.90;;;1.90;99.90;;;;;;22696351;26;20038;-43
2024/04/26 06:09:37;;;;;;;7.07;4.97;;;1.90;99.90;;;;;;22701355;26;20026;-44
2024/04/26 06:19:39;;;;;;;6.57;4.53;;;2.00;99.90;;;;;;22564166;26;20035;-44
2024/04/26 06:29:41;;;;;;;5.05;3.92;;;2.30;99.90;;;;;;22592731;26;20027;-45
2024/04/26 06:39:45;;;;;;;5.90;3.85;;;2.90;99.90;;;;;;22566880;26;20375;-44
2024/04/26 06:49:47;;;;;;;4.53;3.47;;;4.00;99.90;;;;;;22564775;26;20035;-44
2024/04/26 06:59:52;;;;;;;4.55;3.22;;;5.00;99.90;;;;;;22562355;26;20026;-44
2024/04/26 07:09:54;;;;;;;6.82;3.72;;;5.40;99.90;;;;;;22565454;26;20031;-44
2024/04/26 07:19:56;;;;;;;3.80;3.05;;;5.30;99.90;;;;;;22563142;26;20031;-44
2024/04/26 07:29:58;;;;;;;3.28;2.60;;;5.80;99.90;;;;;;22590182;26;20034;-47
2024/04/26 07:39:59;;;;;;;3.00;2.20;;;6.60;99.90;;;;;;22563350;26;20443;-46
2024/04/26 07:50:02;;;;;;;3.05;2.45;;;6.90;99.90;;;;;;22557371;26;20039;-44
2024/04/26 08:00:07;;;;;;;3.28;2.47;;;7.30;99.90;;;;;;22559069;26;20031;-45
2024/04/26 08:10:09;;;;;;;3.35;2.55;;;7.50;99.90;;;;;;22527924;26;20027;-47
2024/04/26 08:20:13;;;;;;;3.75;2.70;;;7.40;99.90;;;;;;22561793;26;20038;-46
2024/04/26 08:30:15;;;;;;;3.42;2.28;;;7.70;99.90;;;;;;22540612;26;20034;-44
2024/04/26 08:40:16;;;;;;;3.15;2.30;;;8.20;99.90;;;;;;22557150;26;20030;-45
2024/04/26 08:50:21;;;;;;;3.00;2.30;;;9.20;99.90;;;;;;22559715;26;20372;-38
2024/04/26 09:00:23;;;;;;;3.47;2.28;;;10.10;99.90;;;;;;22548263;26;20464;-42
2024/04/26 09:10:26;;;;;;;2.85;2.22;;;8.90;99.90;;;;;;22532476;26;20047;-43
2024/04/26 09:20:33;;;;;;;4.28;2.90;;;8.10;99.90;;;;;;22567074;26;20430;-39
2024/04/26 09:30:49;;;;;;;4.20;2.63;;;7.30;99.90;;;;;;22551493;26;20035;-39
2024/04/26 09:40:52;;;;;;;5.00;3.60;;;6.70;99.90;;;;;;22503526;26;20042;-39
2024/04/26 09:50:56;;;;;;;4.10;2.97;;;6.80;99.90;;;;;;22551134;26;20108;-40
2024/04/26 10:00:59;;;;;;;5.30;3.17;;;7.10;99.90;;;;;;22549150;26;20026;-39
2024/04/26 10:11:13;;;;;;;3.90;2.92;;;7.30;99.90;;;;;;22549192;26;20050;-40
2024/04/26 10:21:23;;;;;;;4.00;3.00;;;7.30;99.90;;;;;;22510746;26;20030;-40
2024/04/26 10:31:29;;;;;;;3.95;2.90;;;7.20;99.90;;;;;;22514243;26;20434;-39
2024/04/26 10:41:31;;;;;;;4.07;2.75;;;7.00;99.90;;;;;;22550758;26;20030;-38
2024/04/26 10:51:33;;;;;;;3.78;3.10;;;6.60;99.90;;;;;;22546080;26;20027;-37
2024/04/26 11:01:55;;;;;;;4.50;3.28;;;6.30;99.90;;;;;;22559312;26;20031;-44
2024/04/26 11:11:57;;;;;;;3.75;2.92;;;6.20;99.90;;;;;;22547573;26;20490;-44
2024/04/26 11:22:03;;;;;;;3.25;2.53;;;7.10;99.90;;;;;;22555859;26;20092;-44
2024/04/26 11:32:05;;;;;;;5.10;3.00;;;8.10;99.90;;;;;;22546880;26;20039;-44
2024/04/26 11:42:06;;;;;;;2.83;2.30;;;7.90;99.90;;;;;;22557022;26;20100;-44
2024/04/26 11:52:09;;;;;;;2.63;2.33;;;7.70;99.90;;;;;;22555291;26;20035;-46
2024/04/26 12:02:16;;;;;;;3.92;2.40;;;7.70;99.90;;;;;;22558280;26;20042;-44
2024/04/26 12:12:18;;;;;;;4.13;2.60;;;7.70;99.90;;;;;;22561104;26;20027;-46
2024/04/26 12:22:19;;;;;;;3.28;2.47;;;7.50;99.90;;;;;;22545352;26;20054;-44
2024/04/26 12:32:21;;;;;;;3.63;2.97;;;7.40;99.90;;;;;;22555652;26;20022;-45
2024/04/26 12:42:23;;;;;;;4.22;2.75;;;7.30;99.90;;;;;;22551863;26;20028;-44
2024/04/26 12:52:25;;;;;;;4.40;3.50;;;7.20;99.90;;;;;;22518217;26;20042;-46
2024/04/26 13:02:27;;;;;;;5.65;3.00;;;7.40;99.90;;;;;;22555008;26;20042;-46
2024/04/26 13:12:30;;;;;;;3.58;2.50;;;7.60;99.90;;;;;;22553049;26;20076;-44
2024/04/26 13:22:33;;;;;;;1.50;1.20;;;8.20;99.90;;;;;;22550130;26;20030;-46
2024/04/26 13:32:34;;;;;;;3.78;1.65;;;9.50;99.90;;;;;;22520010;26;20062;-47
2024/04/26 13:42:36;;;;;;;2.95;2.17;;;9.80;99.90;;;;;;22552771;26;20038;-45
2024/04/26 13:52:38;;;;;;;2.97;2.33;;;9.80;99.90;;;;;;22546564;26;20030;-47
2024/04/26 14:02:40;;;;;;;4.05;2.42;;;8.90;99.90;;;;;;22561096;26;20097;-44
2024/04/26 14:12:43;;;;;;;5.65;2.63;;;8.00;99.90;;;;;;22550976;26;20128;-46
2024/04/26 14:22:44;;;;;;;4.18;2.60;;;8.70;99.90;;;;;;22545497;26;20031;-44
2024/04/26 14:32:46;;;;;;;3.90;2.70;;;9.10;99.90;;;;;;22553591;26;20026;-46
2024/04/26 14:42:50;;;;;;;3.80;2.90;;;9.00;99.90;;;;;;22543205;26;20387;-46
2024/04/26 14:52:52;;;;;;;3.92;2.70;;;8.60;99.90;;;;;;22544891;26;20481;-47
2024/04/26 15:02:53;;;;;;;3.40;2.90;;;8.60;99.90;;;;;;22555107;26;20078;-47
2024/04/26 15:12:55;;;;;;;3.47;2.97;;;9.00;99.90;;;;;;22558951;26;20098;-44
2024/04/26 15:22:57;;;;;;;4.20;3.05;;;8.50;99.90;;;;;;22556248;26;20034;-46
2024/04/26 15:32:59;;;;;;;4.38;2.95;;;7.90;99.90;;;;;;22557257;26;20030;-44
2024/04/26 15:43:01;;;;;;;3.38;2.97;;;7.80;99.90;;;;;;22556781;26;20022;-45
2024/04/26 15:53:03;;;;;;;2.80;2.50;;;8.30;99.90;;;;;;22558705;26;20032;-45
2024/04/26 16:03:05;;;;;;;2.67;2.30;;;8.80;99.90;;;;;;22552396;26;20423;-47
2024/04/26 16:13:07;;;;;;;2.78;2.42;;;8.90;99.90;;;;;;22554126;26;20026;-46
2024/04/26 16:23:09;;;;;;;3.08;2.28;;;9.20;99.90;;;;;;22555481;26;20443;-47
2024/04/26 16:33:10;;;;;;;3.78;2.30;;;8.80;99.90;;;;;;22631265;26;20023;-47
2024/04/26 16:43:12;;;;;;;3.08;2.55;;;8.10;99.90;;;;;;22571359;26;20110;-44
2024/04/26 16:53:17;;;;;;;3.47;2.70;;;7.80;99.90;;;;;;22557633;26;20035;-44
2024/04/26 17:03:19;;;;;;;3.22;2.78;;;7.60;99.90;;;;;;22355353;26;20600;-44
2024/04/26 17:13:23;;;;;;;4.75;2.83;;;7.30;99.90;;;;;;22358542;26;20004;-48
2024/04/26 17:23:24;;;;;;;5.75;3.40;;;7.30;99.90;;;;;;22248317;26;20032;-46
2024/04/26 17:33:26;;;;;;;3.30;3.00;;;6.70;99.90;;;;;;22368873;26;20087;-46
2024/04/26 17:43:28;;;;;;;6.00;3.60;;;6.30;99.90;;;;;;22590971;26;20036;-44
2024/04/26 17:53:30;;;;;;;4.60;3.50;;;6.00;99.90;;;;;;22565083;26;20030;-45
2024/04/26 18:03:32;;;;;;;5.38;3.70;;;5.70;99.90;;;;;;22559630;26;20042;-46
2024/04/26 18:13:34;;;;;;;4.50;4.10;;;5.50;99.90;;;;;;22590152;26;20331;-46
2024/04/26 18:23:38;;;;;;;6.40;4.85;;;5.30;99.90;;;;;;22664834;26;20042;-44
2024/04/26 18:33:43;;;;;;;5.55;4.88;;;4.70;99.90;;;;;;22634190;26;20026;-46
2024/04/26 18:43:45;;;;;;;6.93;5.43;;;4.20;99.90;;;;;;22701357;26;20026;-46
2024/04/26 18:53:47;;;;;;;8.95;5.90;;;4.10;99.90;;;;;;22587726;26;20046;-46
2024/04/26 19:03:49;;;;;;;11.27;8.55;;;4.00;99.90;;;;;;22610784;26;20031;-46
2024/04/26 19:13:54;;;;;;;8.60;6.38;;;3.90;99.90;;;;;;22590198;26;20022;-44
2024/04/26 19:23:56;;;;;;;9.68;7.25;;;3.60;99.90;;;;;;22698006;26;20046;-43
2024/04/26 19:33:58;;;;;;;9.27;7.13;;;3.60;99.90;;;;;;22659536;26;20026;-43
2024/04/26 19:44:00;;;;;;;11.20;8.02;;;3.60;99.90;;;;;;22606100;26;20430;-44
2024/04/26 20:04:23;;;;;;;13.32;8.68;;;3.90;99.90;;;;;;22575243;26;20031;-44
2024/04/26 20:14:25;;;;;;;10.27;7.35;;;3.80;99.90;;;;;;22501140;26;20334;-45
2024/04/26 20:24:27;;;;;;;11.52;8.35;;;3.80;99.90;;;;;;22466962;26;21761;-44
2024/04/26 20:34:30;;;;;;;15.80;10.77;;;3.80;99.90;;;;;;22625253;26;20438;-47
2024/04/26 20:44:32;;;;;;;14.43;10.95;;;3.80;99.90;;;;;;22610852;26;20013;-45
2024/04/26 20:54:35;;;;;;;16.85;12.18;;;3.60;99.90;;;;;;22584320;26;20026;-46
2024/04/26 21:04:36;;;;;;;14.55;10.93;;;3.30;99.90;;;;;;22686146;26;20026;-47
2024/04/26 21:14:39;;;;;;;12.93;10.50;;;3.20;99.90;;;;;;22646808;26;20035;-47
2024/04/26 21:24:41;;;;;;;18.95;13.80;;;3.10;99.90;;;;;;22674380;26;20026;-46
2024/04/26 21:34:43;;;;;;;16.35;11.85;;;3.00;99.90;;;;;;22574495;26;20034;-45
2024/04/26 21:44:44;;;;;;;20.27;12.85;;;2.90;99.90;;;;;;22577302;26;20041;-45
2024/04/26 21:54:46;;;;;;;18.60;13.40;;;2.90;99.90;;;;;;22556053;26;20049;-41
2024/04/26 22:04:48;;;;;;;19.65;13.82;;;2.90;99.90;;;;;;22561219;26;20026;-42
2024/04/26 22:14:50;;;;;;;21.83;14.52;;;2.80;99.90;;;;;;22548884;26;20138;-39
2024/04/26 22:24:51;;;;;;;16.65;11.32;;;2.50;99.90;;;;;;22552613;26;20492;-38
2024/04/26 22:34:58;;;;;;;16.70;11.20;;;2.10;99.90;;;;;;22653243;26;20108;-39
2024/04/26 22:45:02;;;;;;;16.33;10.45;;;1.50;99.90;;;;;;22645284;26;20039;-42
2024/04/26 22:55:04;;;;;;;18.58;11.30;;;1.10;99.90;;;;;;22551316;26;20026;-39
2024/04/26 23:05:06;;;;;;;6.28;4.03;;;1.00;99.90;;;;;;22652415;26;20084;-42
2024/04/26 23:15:08;;;;;;;8.48;5.30;;;1.10;99.90;;;;;;22708965;26;20030;-40
2024/04/26 23:25:10;;;;;;;10.13;6.80;;;1.20;99.90;;;;;;22712443;26;20054;-40
2024/04/26 23:35:12;;;;;;;11.57;6.22;;;1.20;99.90;;;;;;22655708;26;20379;-40
2024/04/26 23:45:14;;;;;;;9.48;5.85;;;1.20;99.90;;;;;;22593401;26;20026;-39
2024/04/26 23:55:16;;;;;;;9.75;6.15;;;1.40;99.90;;;;;;22574770;26;20104;-40
